createdAt,value
2022-10-12T00:37:58.442Z,16.05
2022-10-12T00:40:48.193Z,18.15
2022-10-12T00:43:42.019Z,16.98
2022-10-12T00:46:34.904Z,17.05
2022-10-12T00:49:27.366Z,15.50
2022-10-12T00:52:17.558Z,17.13
2022-10-12T00:55:10.615Z,20.27
2022-10-12T00:58:00.321Z,18.67
2022-10-12T01:00:49.667Z,17.00
2022-10-12T01:03:39.231Z,18.30
2022-10-12T01:06:28.299Z,17.80
2022-10-12T01:09:17.320Z,16.38
2022-10-12T01:12:09.433Z,16.35
2022-10-12T01:14:58.607Z,16.35
2022-10-12T01:17:59.343Z,15.80
2022-10-12T01:21:07.202Z,15.90
2022-10-12T01:24:31.441Z,16.77
2022-10-12T01:27:47.356Z,15.90
2022-10-12T01:30:41.732Z,16.23
2022-10-12T01:33:38.083Z,16.73
2022-10-12T01:36:34.356Z,15.95
2022-10-12T01:39:29.001Z,16.25
2022-10-12T01:42:25.023Z,17.60
2022-10-12T01:45:15.479Z,18.23
2022-10-12T01:48:07.645Z,18.95
2022-10-12T01:51:01.063Z,18.20
2022-10-12T01:53:57.775Z,18.10
2022-10-12T01:56:56.111Z,18.50
2022-10-12T01:59:51.642Z,20.25
2022-10-12T02:02:51.295Z,17.85
2022-10-12T02:05:49.299Z,19.02
2022-10-12T02:08:43.808Z,17.10
2022-10-12T02:11:35.386Z,19.02
2022-10-12T02:14:29.806Z,18.13
2022-10-12T02:17:21.744Z,20.45
2022-10-12T02:20:15.683Z,21.45
2022-10-12T02:23:07.003Z,19.85
2022-10-12T02:25:58.116Z,23.92
2022-10-12T02:28:47.461Z,20.80
2022-10-12T02:31:41.609Z,18.55
2022-10-12T02:34:32.275Z,19.23
2022-10-12T02:37:31.176Z,18.17
2022-10-12T02:40:28.545Z,17.88
2022-10-12T02:43:19.970Z,18.70
2022-10-12T02:46:10.844Z,17.60
2022-10-12T02:49:00.638Z,18.23
2022-10-12T02:51:50.853Z,19.33
2022-10-12T02:54:40.320Z,19.85
2022-10-12T02:57:30.828Z,18.30
2022-10-12T03:00:21.020Z,17.67
2022-10-12T03:03:10.497Z,18.17
2022-10-12T03:05:59.699Z,17.48
2022-10-12T03:08:48.634Z,20.95
2022-10-12T03:11:38.004Z,20.90
2022-10-12T03:14:28.761Z,19.35
2022-10-12T03:17:17.995Z,18.60
2022-10-12T03:20:07.851Z,17.77
2022-10-12T03:22:57.080Z,18.88
2022-10-12T03:25:46.645Z,18.25
2022-10-12T03:28:35.851Z,15.90
2022-10-12T03:31:26.563Z,17.60
2022-10-12T03:34:15.980Z,17.52
2022-10-12T03:37:05.049Z,17.98
2022-10-12T03:39:54.201Z,17.05
2022-10-12T03:42:43.084Z,17.02
2022-10-12T03:45:32.105Z,17.80
2022-10-12T03:48:22.561Z,16.65
2022-10-12T03:51:12.401Z,15.93
2022-10-12T03:54:01.647Z,16.13
2022-10-12T03:56:51.185Z,16.67
2022-10-12T03:59:40.791Z,16.40
2022-10-12T04:02:30.168Z,18.02
2022-10-12T04:05:20.765Z,16.38
2022-10-12T04:08:10.593Z,15.88
2022-10-12T04:11:00.102Z,16.67
2022-10-12T04:13:49.347Z,17.08
2022-10-12T04:16:38.639Z,17.50
2022-10-12T04:19:27.858Z,16.90
2022-10-12T04:22:18.378Z,16.35
2022-10-12T04:25:08.118Z,15.10
2022-10-12T04:27:58.171Z,16.40
2022-10-12T04:30:47.821Z,17.50
2022-10-12T04:33:36.949Z,17.55
2022-10-12T04:36:26.193Z,16.40
2022-10-12T04:39:16.559Z,17.45
2022-10-12T04:42:07.222Z,16.83
2022-10-12T04:44:56.745Z,16.95
2022-10-12T04:47:46.158Z,16.70
2022-10-12T04:50:35.283Z,16.10
2022-10-12T04:53:24.487Z,15.93
2022-10-12T04:56:15.442Z,16.60
2022-10-12T04:59:04.436Z,16.10
2022-10-12T05:01:54.448Z,18.00
2022-10-12T05:04:43.708Z,16.33
2022-10-12T05:07:32.937Z,16.10
2022-10-12T05:10:21.826Z,16.48
2022-10-12T05:13:12.673Z,17.10
2022-10-12T05:16:02.163Z,17.75
2022-10-12T05:18:51.279Z,18.75
2022-10-12T05:21:40.770Z,17.70
2022-10-12T05:24:29.708Z,17.27
2022-10-12T05:27:18.944Z,16.42
2022-10-12T05:30:10.357Z,19.52
2022-10-12T05:32:59.747Z,20.25
2022-10-12T05:35:54.676Z,18.73
2022-10-12T05:38:45.500Z,19.35
2022-10-12T05:41:35.026Z,17.52
2022-10-12T05:44:24.184Z,19.40
2022-10-12T05:47:14.658Z,19.23
2022-10-12T05:50:04.170Z,19.40
2022-10-12T05:52:53.603Z,20.35
2022-10-12T05:55:42.886Z,20.60
2022-10-12T05:58:32.523Z,20.25
2022-10-12T06:01:21.929Z,21.15
2022-10-12T06:04:13.333Z,21.00
2022-10-12T06:07:02.693Z,21.25
2022-10-12T06:09:51.840Z,21.30
2022-10-12T06:12:41.279Z,21.58
2022-10-12T06:15:30.428Z,20.60
2022-10-12T06:18:19.779Z,21.30
2022-10-12T06:24:19.934Z,20.55
2022-10-12T06:27:09.782Z,20.40
2022-10-12T06:29:58.896Z,18.10
2022-10-12T06:32:48.238Z,19.83
2022-10-12T06:35:37.791Z,21.70
2022-10-12T06:38:28.999Z,20.65
2022-10-12T06:41:18.847Z,22.00
2022-10-12T06:44:08.648Z,19.27
2022-10-12T06:46:57.530Z,21.02
2022-10-12T06:49:46.831Z,20.00
2022-10-12T06:52:36.566Z,22.65
2022-10-12T06:55:27.139Z,19.67
2022-10-12T06:58:16.290Z,18.60
2022-10-12T07:01:05.729Z,19.10
2022-10-12T07:04:00.404Z,21.45
2022-10-12T07:06:50.363Z,20.60
2022-10-12T07:09:39.484Z,20.98
2022-10-12T07:12:30.047Z,19.48
2022-10-12T07:15:19.489Z,21.42
2022-10-12T07:18:08.694Z,22.00
2022-10-12T07:20:59.850Z,23.63
2022-10-12T07:23:49.393Z,21.90
2022-10-12T07:26:38.228Z,20.67
2022-10-12T07:29:29.014Z,19.42
2022-10-12T07:32:17.822Z,18.70
2022-10-12T07:35:07.233Z,22.67
2022-10-12T07:37:55.920Z,21.63
2022-10-12T07:40:44.949Z,23.63
2022-10-12T07:43:34.087Z,20.27
2022-10-12T07:46:25.515Z,21.63
2022-10-12T07:49:15.508Z,21.50
2022-10-12T07:52:04.500Z,21.98
2022-10-12T07:54:53.951Z,25.38
2022-10-12T07:57:44.387Z,25.50
2022-10-12T08:00:33.793Z,24.67
2022-10-12T08:03:24.794Z,24.02
2022-10-12T08:06:15.330Z,20.73
2022-10-12T08:09:04.743Z,23.55
2022-10-12T08:11:54.149Z,22.65
2022-10-12T08:14:43.393Z,24.23
2022-10-12T08:17:32.114Z,20.13
2022-10-12T08:20:22.622Z,22.30
2022-10-12T08:23:11.687Z,22.60
2022-10-12T08:26:00.412Z,22.20
2022-10-12T08:28:49.960Z,22.08
2022-10-12T08:31:38.667Z,19.98
2022-10-12T08:34:27.548Z,21.02
2022-10-12T08:37:18.059Z,20.77
2022-10-12T08:40:08.503Z,20.95
2022-10-12T08:43:05.747Z,21.83
2022-10-12T08:45:57.345Z,20.75
2022-10-12T08:48:51.990Z,21.80
2022-10-12T08:51:48.750Z,20.92
2022-10-12T08:54:44.160Z,20.25
2022-10-12T08:57:34.937Z,20.48
2022-10-12T09:00:24.932Z,21.90
2022-10-12T09:03:25.111Z,19.92
2022-10-12T09:06:18.667Z,19.80
2022-10-12T09:09:20.585Z,18.63
2022-10-12T09:12:25.392Z,17.70
2022-10-12T09:15:17.962Z,18.15
2022-10-12T09:18:16.571Z,15.07
2022-10-12T09:21:07.665Z,15.05
2022-10-12T09:23:57.943Z,14.65
2022-10-12T09:26:49.855Z,14.55
2022-10-12T09:29:40.646Z,14.75
2022-10-12T09:32:52.317Z,13.68
2022-10-12T09:35:41.941Z,11.30
2022-10-12T09:38:31.098Z,13.55
2022-10-12T09:41:22.730Z,14.05
2022-10-12T09:44:15.826Z,13.95
2022-10-12T09:47:07.838Z,14.05
2022-10-12T09:49:59.578Z,13.73
2022-10-12T09:52:50.670Z,11.88
2022-10-12T09:55:40.159Z,11.82
2022-10-12T09:58:30.329Z,14.15
2022-10-12T10:01:21.983Z,12.13
2022-10-12T10:04:14.615Z,9.40
2022-10-12T10:07:14.769Z,12.05
2022-10-12T10:10:10.436Z,12.07
2022-10-12T10:13:03.143Z,12.02
2022-10-12T10:15:53.816Z,11.52
2022-10-12T10:18:45.505Z,11.50
2022-10-12T10:21:38.464Z,10.43
2022-10-12T10:24:31.127Z,10.63
2022-10-12T10:27:37.847Z,10.15
2022-10-12T10:30:35.003Z,9.35
2022-10-12T10:33:27.811Z,8.90
2022-10-12T10:36:21.594Z,7.88
2022-10-12T10:39:20.890Z,9.20
2022-10-12T10:42:18.387Z,9.85
2022-10-12T10:45:10.106Z,8.65
2022-10-12T10:48:02.811Z,9.27
2022-10-12T10:51:00.368Z,12.70
2022-10-12T10:53:51.911Z,10.73
2022-10-12T10:56:42.907Z,10.57
2022-10-12T10:59:47.110Z,10.20
2022-10-12T11:02:43.260Z,8.63
2022-10-12T11:05:34.282Z,9.85
2022-10-12T11:08:25.146Z,10.00
2022-10-12T11:11:16.084Z,11.02
2022-10-12T11:14:10.334Z,8.68
2022-10-12T11:17:01.302Z,10.52
2022-10-12T11:19:52.912Z,10.23
2022-10-12T11:22:48.824Z,9.23
2022-10-12T11:25:45.634Z,10.82
2022-10-12T11:28:39.387Z,11.23
2022-10-12T11:31:32.538Z,9.18
2022-10-12T11:34:23.891Z,10.82
2022-10-12T11:37:20.280Z,8.75
2022-10-12T11:40:14.343Z,9.77
2022-10-12T11:43:08.252Z,8.23
2022-10-12T11:45:59.857Z,9.55
2022-10-12T11:48:56.281Z,10.27
2022-10-12T11:51:48.320Z,12.02
2022-10-12T11:54:44.611Z,12.45
2022-10-12T11:57:38.595Z,10.30
2022-10-12T12:00:37.763Z,9.32
2022-10-12T12:03:31.689Z,10.25
2022-10-12T12:06:54.840Z,11.07
2022-10-12T12:09:50.132Z,10.32
2022-10-12T12:13:00.181Z,11.27
2022-10-12T12:16:04.280Z,12.85
2022-10-12T12:19:30.624Z,9.70
2022-10-12T12:22:30.055Z,8.43
2022-10-12T12:25:36.912Z,8.63
2022-10-12T12:28:27.081Z,10.40
2022-10-12T12:31:18.665Z,10.18
2022-10-12T12:34:14.198Z,8.40
2022-10-12T12:37:14.463Z,8.85
2022-10-12T12:40:06.109Z,9.90
2022-10-12T12:43:15.637Z,8.25
2022-10-12T12:46:05.970Z,8.48
2022-10-12T12:49:07.851Z,8.10
2022-10-12T12:52:00.001Z,6.70
2022-10-12T12:55:30.470Z,6.55
2022-10-12T12:58:38.640Z,8.45
2022-10-12T13:01:49.338Z,6.70
2022-10-12T13:04:53.647Z,7.28
2022-10-12T13:08:08.774Z,7.32
2022-10-12T13:11:17.632Z,7.70
2022-10-12T13:14:22.523Z,9.82
2022-10-12T13:17:34.376Z,9.73
2022-10-12T13:20:26.478Z,7.45
2022-10-12T13:23:19.351Z,9.20
2022-10-12T13:26:10.719Z,8.52
2022-10-12T13:29:00.914Z,10.82
2022-10-12T13:31:54.115Z,7.97
2022-10-12T13:34:46.690Z,7.45
2022-10-12T13:37:36.470Z,6.53
2022-10-12T13:40:34.144Z,6.70
2022-10-12T13:43:30.709Z,5.72
2022-10-12T13:46:38.510Z,5.78
2022-10-12T13:49:31.739Z,6.38
2022-10-12T13:52:28.386Z,5.63
2022-10-12T13:55:26.495Z,7.70
2022-10-12T13:58:24.659Z,7.65
2022-10-12T14:01:14.424Z,6.80
2022-10-12T14:04:09.698Z,7.15
2022-10-12T14:07:03.382Z,7.35
2022-10-12T14:09:56.869Z,8.13
2022-10-12T14:12:46.944Z,8.57
2022-10-12T14:15:38.518Z,7.25
2022-10-12T14:18:39.680Z,9.32
2022-10-12T14:21:33.256Z,8.82
2022-10-12T14:24:26.659Z,8.15
2022-10-12T14:27:24.364Z,11.75
2022-10-12T14:30:20.621Z,12.10
2022-10-12T14:33:23.302Z,11.93
2022-10-12T14:36:17.029Z,8.18
2022-10-12T14:39:14.255Z,8.15
2022-10-12T14:42:06.041Z,7.68
2022-10-12T14:44:55.646Z,7.90
2022-10-12T14:47:44.765Z,10.00
2022-10-12T14:50:34.425Z,7.47
2022-10-12T14:53:29.251Z,6.30
2022-10-12T14:56:18.491Z,8.27
2022-10-12T14:59:09.264Z,7.53
2022-10-12T15:01:58.332Z,7.25
2022-10-12T15:04:47.432Z,8.23
2022-10-12T15:07:37.023Z,8.05
2022-10-12T15:10:26.946Z,8.45
2022-10-12T15:13:16.642Z,8.05
2022-10-12T15:16:12.757Z,8.45
2022-10-12T15:19:02.179Z,7.50
2022-10-12T15:21:51.340Z,7.22
2022-10-12T15:24:40.527Z,10.05
2022-10-12T15:27:30.068Z,7.68
2022-10-12T15:30:19.656Z,6.97
2022-10-12T15:33:12.248Z,8.50
2022-10-12T15:36:01.809Z,9.13
2022-10-12T15:38:50.756Z,9.77
2022-10-12T15:41:40.182Z,8.27
2022-10-12T15:44:29.551Z,7.78
2022-10-12T15:47:18.687Z,6.35
2022-10-12T15:50:10.095Z,8.77
2022-10-12T15:52:59.367Z,9.45
2022-10-12T15:55:48.963Z,8.52
2022-10-12T15:58:38.071Z,8.48
2022-10-12T16:01:27.495Z,8.50
2022-10-12T16:04:17.534Z,7.82
2022-10-12T16:07:08.714Z,6.68
2022-10-12T16:10:00.545Z,8.25
2022-10-12T16:12:50.653Z,8.30
2022-10-12T16:15:40.238Z,7.57
2022-10-12T16:18:29.576Z,7.60
2022-10-12T16:21:18.874Z,8.15
2022-10-12T16:24:09.867Z,8.95
2022-10-12T16:26:59.664Z,7.25
2022-10-12T16:29:48.751Z,7.13
2022-10-12T16:32:38.127Z,6.43
2022-10-12T16:35:27.445Z,7.57
2022-10-12T16:38:16.467Z,6.60
2022-10-12T16:41:12.282Z,10.57
2022-10-12T16:44:02.130Z,7.65
2022-10-12T16:46:51.313Z,8.07
2022-10-12T16:49:40.696Z,8.70
2022-10-12T16:52:29.839Z,7.85
2022-10-12T16:55:19.306Z,7.35
2022-10-12T16:58:10.417Z,7.35
2022-10-12T17:00:59.299Z,8.38
2022-10-12T17:03:48.540Z,8.27
2022-10-12T17:06:37.672Z,8.55
2022-10-12T17:09:27.762Z,8.55
2022-10-12T17:12:19.037Z,8.02
2022-10-12T17:15:11.978Z,8.88
2022-10-12T17:18:00.538Z,7.90
2022-10-12T17:20:52.814Z,8.18
2022-10-12T17:23:42.252Z,7.97
2022-10-12T17:26:32.218Z,8.45
2022-10-12T17:29:21.946Z,8.23
2022-10-12T17:32:15.936Z,7.82
2022-10-12T17:35:05.644Z,8.30
2022-10-12T17:37:56.715Z,8.52
2022-10-12T17:40:45.915Z,8.85
2022-10-12T17:43:34.995Z,8.82
2022-10-12T17:46:24.244Z,9.18
2022-10-12T17:49:17.961Z,9.00
2022-10-12T17:52:08.696Z,7.50
2022-10-12T17:54:58.959Z,7.88
2022-10-12T17:57:48.085Z,8.50
2022-10-12T18:00:37.209Z,9.23
2022-10-12T18:03:28.298Z,9.90
2022-10-12T18:06:22.432Z,9.48
2022-10-12T18:09:12.207Z,10.38
2022-10-12T18:12:02.355Z,9.32
2022-10-12T18:14:53.511Z,9.15
2022-10-12T18:17:42.547Z,7.95
2022-10-12T18:20:31.564Z,9.38
2022-10-12T18:23:22.283Z,9.38
2022-10-12T18:26:14.443Z,9.93
2022-10-12T18:29:05.633Z,9.30
2022-10-12T18:31:55.335Z,10.18
2022-10-12T18:34:44.670Z,11.48
2022-10-12T18:37:34.417Z,10.05
2022-10-12T18:40:29.641Z,9.85
2022-10-12T18:43:18.927Z,10.50
2022-10-12T18:46:08.902Z,10.63
2022-10-12T18:48:58.821Z,12.60
2022-10-12T18:51:50.037Z,13.82
2022-10-12T18:54:39.026Z,11.13
2022-10-12T18:57:32.116Z,14.40
2022-10-12T19:00:22.784Z,12.98
2022-10-12T19:03:14.520Z,13.07
2022-10-12T19:06:09.386Z,11.80
2022-10-12T19:09:05.294Z,13.60
2022-10-12T19:11:54.654Z,12.27
2022-10-12T19:14:45.273Z,14.05
2022-10-12T19:17:34.511Z,14.02
2022-10-12T19:20:23.786Z,13.68
2022-10-12T19:23:12.959Z,12.30
2022-10-12T19:26:06.001Z,15.38
2022-10-12T19:28:57.428Z,14.80
2022-10-12T19:31:52.824Z,13.45
2022-10-12T19:34:42.796Z,12.55
2022-10-12T19:37:32.132Z,14.93
2022-10-12T19:40:22.014Z,12.23
2022-10-12T19:43:11.534Z,13.10
2022-10-12T19:46:04.215Z,13.45
2022-10-12T19:48:56.826Z,12.90
2022-10-12T19:51:46.425Z,12.35
2022-10-12T19:54:36.409Z,13.68
2022-10-12T19:57:26.225Z,12.38
2022-10-12T20:00:23.385Z,12.85
2022-10-12T20:03:12.676Z,11.35
2022-10-12T20:06:06.393Z,11.27
2022-10-12T20:08:56.982Z,12.20
2022-10-12T20:11:46.310Z,14.23
2022-10-12T20:14:35.328Z,12.73
2022-10-12T20:17:24.559Z,13.57
2022-10-12T20:20:14.392Z,13.57
2022-10-12T20:23:05.390Z,13.30
2022-10-12T20:25:55.361Z,14.55
2022-10-12T20:28:44.994Z,13.70
2022-10-12T20:31:34.214Z,12.90
2022-10-12T20:34:23.520Z,13.02
2022-10-12T20:37:14.710Z,14.25
2022-10-12T20:40:05.442Z,14.77
2022-10-12T20:42:54.938Z,12.90
2022-10-12T20:45:44.450Z,12.73
2022-10-12T20:48:34.146Z,11.82
2022-10-12T20:51:24.754Z,11.68
2022-10-12T20:54:18.520Z,11.38
2022-10-12T20:57:09.409Z,11.45
2022-10-12T20:59:58.650Z,14.73
2022-10-12T21:02:47.917Z,14.48
2022-10-12T21:05:37.223Z,13.52
2022-10-12T21:08:26.571Z,14.15
2022-10-12T21:11:15.873Z,13.20
2022-10-12T21:14:06.886Z,13.15
2022-10-12T21:16:56.115Z,12.63
2022-10-12T21:19:45.045Z,14.18
2022-10-12T21:22:34.417Z,13.02
2022-10-12T21:25:23.663Z,12.90
2022-10-12T21:28:14.232Z,11.50
2022-10-12T21:31:05.190Z,11.30
2022-10-12T21:33:54.863Z,12.73
2022-10-12T21:36:44.315Z,13.82
2022-10-12T21:39:34.091Z,11.77
2022-10-12T21:42:23.583Z,11.55
2022-10-12T21:45:12.986Z,12.60
2022-10-12T21:48:03.799Z,12.18
2022-10-12T21:50:53.338Z,12.82
2022-10-12T21:53:42.527Z,10.93
2022-10-12T21:56:32.314Z,13.18
2022-10-12T21:59:21.692Z,12.57
2022-10-12T22:02:10.836Z,12.85
2022-10-12T22:05:01.443Z,12.73
2022-10-12T22:07:50.960Z,11.32
2022-10-12T22:10:43.726Z,12.43
2022-10-12T22:13:33.978Z,12.73
2022-10-12T22:16:23.509Z,13.05
2022-10-12T22:19:19.412Z,13.15
2022-10-12T22:22:10.449Z,11.70
2022-10-12T22:24:59.686Z,11.40
2022-10-12T22:27:48.852Z,12.20
2022-10-12T22:30:41.021Z,12.90
2022-10-12T22:33:30.573Z,12.52
2022-10-12T22:40:04.101Z,12.63
2022-10-12T22:42:53.199Z,11.85
2022-10-12T22:45:42.508Z,11.85
2022-10-12T22:48:31.722Z,12.60
2022-10-12T22:51:22.549Z,12.75
2022-10-12T22:54:13.336Z,12.20
2022-10-12T22:57:03.895Z,10.77
2022-10-12T22:59:52.738Z,12.73
2022-10-12T23:02:42.098Z,11.90
2022-10-12T23:05:31.582Z,12.43
2022-10-12T23:08:20.860Z,12.63
2022-10-12T23:11:13.273Z,12.43
2022-10-12T23:14:04.073Z,12.38
2022-10-12T23:16:53.810Z,13.10
2022-10-12T23:19:43.851Z,11.57
2022-10-12T23:22:32.902Z,10.75
2022-10-12T23:25:22.596Z,13.02
2022-10-12T23:28:11.947Z,13.02
2022-10-12T23:31:04.837Z,9.95
2022-10-12T23:33:58.714Z,10.50
2022-10-12T23:36:47.592Z,10.65
2022-10-12T23:39:37.368Z,13.55
2022-10-12T23:42:28.591Z,12.15
2022-10-12T23:45:17.509Z,13.77
2022-10-12T23:48:08.221Z,13.88
2022-10-12T23:50:57.757Z,13.60
2022-10-12T23:53:47.280Z,12.90
2022-10-12T23:56:36.420Z,14.15
2022-10-12T23:59:25.972Z,15.55
